createdAt,value
2024-04-17T00:00:06.472Z,134.00
2024-04-17T00:00:43.150Z,134.00
2024-04-17T00:01:15.743Z,133.00
2024-04-17T00:01:48.480Z,132.33
2024-04-17T00:02:20.681Z,132.00
2024-04-17T00:02:52.889Z,132.00
2024-04-17T00:03:25.382Z,132.00
2024-04-17T00:03:57.764Z,132.00
2024-04-17T00:04:29.943Z,132.00
2024-04-17T00:05:06.157Z,132.00
2024-04-17T00:05:40.341Z,132.00
2024-04-17T00:06:13.143Z,133.00
2024-04-17T00:06:44.895Z,133.00
2024-04-17T00:07:17.512Z,133.00
2024-04-17T00:07:49.244Z,134.00
2024-04-17T00:08:21.051Z,134.00
2024-04-17T00:08:52.797Z,134.00
2024-04-17T00:09:25.539Z,134.00
2024-04-17T00:09:57.257Z,134.00
2024-04-17T00:10:29.858Z,134.00
2024-04-17T00:11:02.930Z,134.00
2024-04-17T00:11:34.710Z,134.00
2024-04-17T00:12:08.043Z,134.00
2024-04-17T00:12:40.067Z,134.00
2024-04-17T00:13:12.346Z,134.00
2024-04-17T00:13:44.157Z,134.00
2024-04-17T00:14:16.418Z,134.00
2024-04-17T00:14:48.220Z,134.00
2024-04-17T00:15:20.407Z,134.00
2024-04-17T00:15:52.794Z,134.00
2024-04-17T00:16:24.571Z,134.00
2024-04-17T00:16:57.225Z,134.00
2024-04-17T00:17:29.064Z,134.00
2024-04-17T00:18:02.044Z,134.00
2024-04-17T00:18:34.256Z,134.00
2024-04-17T00:19:06.253Z,133.33
2024-04-17T00:19:38.092Z,133.00
2024-04-17T00:20:10.566Z,133.00
2024-04-17T00:20:42.711Z,133.00
2024-04-17T00:21:14.699Z,132.00
2024-04-17T00:21:46.479Z,132.00
2024-04-17T00:22:18.320Z,131.00
2024-04-17T00:22:50.099Z,130.67
2024-04-17T00:23:22.335Z,130.00
2024-04-17T00:23:55.532Z,129.33
2024-04-17T00:24:27.603Z,128.67
2024-04-17T00:24:59.546Z,128.00
2024-04-17T00:25:32.913Z,127.00
2024-04-17T00:26:06.612Z,125.00
2024-04-17T00:26:41.788Z,122.00
2024-04-17T00:27:13.587Z,121.00
2024-04-17T00:27:47.117Z,120.67
2024-04-17T00:28:20.278Z,120.33
2024-04-17T00:28:53.062Z,118.00
2024-04-17T00:29:25.865Z,117.00
2024-04-17T00:29:57.638Z,117.00
2024-04-17T00:30:31.138Z,115.67
2024-04-17T00:31:02.908Z,116.00
2024-04-17T00:31:37.942Z,115.33
2024-04-17T00:32:09.871Z,114.33
2024-04-17T00:32:41.782Z,114.00
2024-04-17T00:33:14.089Z,114.67
2024-04-17T00:33:46.687Z,115.00
2024-04-17T00:34:18.494Z,114.33
2024-04-17T00:34:51.616Z,114.00
2024-04-17T00:35:23.398Z,114.00
2024-04-17T00:35:56.320Z,114.00
2024-04-17T00:36:28.296Z,114.00
2024-04-17T00:37:01.168Z,114.00
2024-04-17T00:37:33.367Z,114.00
2024-04-17T00:38:05.406Z,114.00
2024-04-17T00:38:37.128Z,113.00
2024-04-17T00:39:09.401Z,111.67
2024-04-17T00:39:41.375Z,111.00
2024-04-17T00:40:13.386Z,111.00
2024-04-17T00:40:45.405Z,111.00
2024-04-17T00:41:17.166Z,111.00
2024-04-17T00:41:49.222Z,111.00
2024-04-17T00:42:21.034Z,110.00
2024-04-17T00:42:52.905Z,110.00
2024-04-17T00:43:25.848Z,109.67
2024-04-17T00:43:58.452Z,109.00
2024-04-17T00:44:30.757Z,109.00
2024-04-17T00:45:03.082Z,107.00
2024-04-17T00:45:42.686Z,105.67
2024-04-17T00:46:15.973Z,105.33
2024-04-17T00:46:48.626Z,106.00
2024-04-17T00:47:20.669Z,106.00
2024-04-17T00:47:52.931Z,106.00
2024-04-17T00:48:25.794Z,106.00
2024-04-17T00:48:59.115Z,106.00
2024-04-17T00:49:31.130Z,107.00
2024-04-17T00:50:03.980Z,107.00
2024-04-17T00:50:36.878Z,107.00
2024-04-17T00:51:09.255Z,107.00
2024-04-17T00:51:41.494Z,107.00
2024-04-17T00:52:13.438Z,106.67
2024-04-17T00:52:46.108Z,106.00
2024-04-17T00:53:24.447Z,105.33
2024-04-17T00:53:56.731Z,105.00
2024-04-17T00:54:29.021Z,105.00
2024-04-17T00:55:04.390Z,105.00
2024-04-17T00:55:37.793Z,104.67
2024-04-17T00:56:09.948Z,104.00
2024-04-17T00:56:42.163Z,103.33
2024-04-17T00:57:15.593Z,102.00
2024-04-17T00:57:48.639Z,101.33
2024-04-17T00:58:22.059Z,101.00
2024-04-17T00:58:54.572Z,101.00
2024-04-17T00:59:26.329Z,101.00
2024-04-17T01:00:00.005Z,101.00
2024-04-17T01:00:33.212Z,101.00
2024-04-17T01:01:05.004Z,101.00
2024-04-17T01:01:36.825Z,101.00
2024-04-17T01:02:08.657Z,101.00
2024-04-17T01:02:41.042Z,101.00
2024-04-17T01:03:14.040Z,101.00
2024-04-17T01:03:46.205Z,101.67
2024-04-17T01:04:18.709Z,102.00
2024-04-17T01:04:50.691Z,102.00
2024-04-17T01:05:23.318Z,102.67
2024-04-17T01:05:55.108Z,105.00
2024-04-17T01:06:28.123Z,106.67
2024-04-17T01:07:00.641Z,108.00
2024-04-17T01:07:33.552Z,108.00
2024-04-17T01:08:06.577Z,108.00
2024-04-17T01:08:38.489Z,108.00
2024-04-17T01:09:11.147Z,108.67
2024-04-17T01:09:43.288Z,109.00
2024-04-17T01:10:15.630Z,109.00
2024-04-17T01:11:02.727Z,109.00
2024-04-17T01:11:42.107Z,108.00
2024-04-17T01:12:15.455Z,108.00
2024-04-17T01:12:47.542Z,108.00
2024-04-17T01:13:19.390Z,108.00
2024-04-17T01:13:52.079Z,108.00
2024-04-17T01:14:24.142Z,108.00
2024-04-17T01:14:56.295Z,108.00
2024-04-17T01:15:28.162Z,108.00
2024-04-17T01:16:01.416Z,106.67
2024-04-17T01:16:33.757Z,106.00
2024-04-17T01:17:06.167Z,106.00
2024-04-17T01:17:39.522Z,106.00
2024-04-17T01:18:13.302Z,106.00
2024-04-17T01:18:51.942Z,106.00
2024-04-17T01:19:25.637Z,106.00
2024-04-17T01:19:58.494Z,105.67
2024-04-17T01:20:31.535Z,105.00
2024-04-17T01:21:03.952Z,105.00
2024-04-17T01:21:37.148Z,104.33
2024-04-17T01:22:09.153Z,103.33
2024-04-17T01:22:41.908Z,103.00
2024-04-17T01:23:13.708Z,103.00
2024-04-17T01:23:50.875Z,103.00
2024-04-17T01:24:23.107Z,103.00
2024-04-17T01:24:54.953Z,104.33
2024-04-17T01:25:26.824Z,106.00
2024-04-17T01:25:59.522Z,107.67
2024-04-17T01:26:33.549Z,108.00
2024-04-17T01:27:05.297Z,108.00
2024-04-17T01:27:37.348Z,108.00
2024-04-17T01:28:09.950Z,107.00
2024-04-17T01:28:43.804Z,106.67
2024-04-17T01:29:15.826Z,106.00
2024-04-17T01:29:47.940Z,106.00
2024-04-17T01:30:20.485Z,105.33
2024-04-17T01:30:53.797Z,104.67
2024-04-17T01:31:27.236Z,103.00
2024-04-17T01:32:00.822Z,103.00
2024-04-17T01:32:33.265Z,103.33
2024-04-17T01:33:05.568Z,104.00
2024-04-17T01:33:37.816Z,104.67
2024-04-17T01:34:11.264Z,105.67
2024-04-17T01:34:45.642Z,107.33
2024-04-17T01:35:17.401Z,110.67
2024-04-17T01:35:49.327Z,114.67
2024-04-17T01:36:21.289Z,117.33
2024-04-17T01:36:53.395Z,118.33
2024-04-17T01:37:26.745Z,119.67
2024-04-17T01:37:58.803Z,121.00
2024-04-17T01:38:30.952Z,121.00
2024-04-17T01:39:02.974Z,121.67
2024-04-17T01:39:35.620Z,129.00
2024-04-17T01:40:08.168Z,133.00
2024-04-17T01:40:40.586Z,130.00
2024-04-17T01:41:12.979Z,128.33
2024-04-17T01:41:44.787Z,127.00
2024-04-17T01:42:19.866Z,126.00
2024-04-17T01:42:51.856Z,126.00
2024-04-17T01:43:25.625Z,126.33
2024-04-17T01:43:58.139Z,125.67
2024-04-17T01:44:30.674Z,125.00
2024-04-17T01:45:02.679Z,125.00
2024-04-17T01:45:34.414Z,124.00
2024-04-17T01:46:07.885Z,124.00
2024-04-17T01:46:41.175Z,124.00
2024-04-17T01:47:13.106Z,124.00
2024-04-17T01:47:45.228Z,124.00
2024-04-17T01:48:17.361Z,124.00
2024-04-17T01:48:49.512Z,124.00
2024-04-17T01:49:21.359Z,123.67
2024-04-17T01:49:53.797Z,123.00
2024-04-17T01:50:29.136Z,123.00
2024-04-17T01:51:00.860Z,123.00
2024-04-17T01:51:33.628Z,123.33
2024-04-17T01:52:05.919Z,124.00
2024-04-17T01:52:38.352Z,124.67
2024-04-17T01:53:10.135Z,126.67
2024-04-17T01:53:41.901Z,127.67
2024-04-17T01:54:13.690Z,128.33
2024-04-17T01:54:45.699Z,129.00
2024-04-17T01:55:17.444Z,129.33
2024-04-17T01:55:49.477Z,130.33
2024-04-17T01:56:21.622Z,133.00
2024-04-17T01:56:54.154Z,134.33
2024-04-17T01:57:27.045Z,135.33
2024-04-17T01:57:59.128Z,138.67
2024-04-17T01:58:31.591Z,143.33
2024-04-17T01:59:04.540Z,148.67
2024-04-17T01:59:36.928Z,149.00
2024-04-17T02:00:09.542Z,153.33
2024-04-17T02:00:47.982Z,162.67
2024-04-17T02:01:19.778Z,165.33
2024-04-17T02:01:52.451Z,167.33
2024-04-17T02:02:25.520Z,169.00
2024-04-17T02:02:59.226Z,169.33
2024-04-17T02:03:33.174Z,170.33
2024-04-17T02:04:05.970Z,165.67
2024-04-17T02:04:37.730Z,163.67
2024-04-17T02:05:09.424Z,162.33
2024-04-17T02:05:41.174Z,159.67
2024-04-17T02:06:13.667Z,157.33
2024-04-17T02:06:45.683Z,154.00
2024-04-17T02:07:17.617Z,151.00
2024-04-17T02:07:49.776Z,149.00
2024-04-17T02:08:22.242Z,147.33
2024-04-17T02:08:54.159Z,146.00
2024-04-17T02:09:25.919Z,145.33
2024-04-17T02:09:59.212Z,145.00
2024-04-17T02:10:31.051Z,145.67
2024-04-17T02:11:04.209Z,146.00
2024-04-17T02:11:36.720Z,146.00
2024-04-17T02:12:09.645Z,145.33
2024-04-17T02:12:42.222Z,143.33
2024-04-17T02:13:13.954Z,143.00
2024-04-17T02:13:46.583Z,142.33
2024-04-17T02:14:19.169Z,142.33
2024-04-17T02:14:52.430Z,141.00
2024-04-17T02:15:26.101Z,139.00
2024-04-17T02:16:04.877Z,136.00
2024-04-17T02:16:36.843Z,134.00
2024-04-17T02:17:08.697Z,134.67
2024-04-17T02:17:41.538Z,135.00
2024-04-17T02:18:13.537Z,134.67
2024-04-17T02:18:45.633Z,134.00
2024-04-17T02:19:18.304Z,134.00
2024-04-17T02:19:50.172Z,134.00
2024-04-17T02:20:22.636Z,135.00
2024-04-17T02:20:54.462Z,135.33
2024-04-17T02:21:26.209Z,135.67
2024-04-17T02:21:58.942Z,135.00
2024-04-17T02:22:30.757Z,135.00
2024-04-17T02:23:02.879Z,134.67
2024-04-17T02:23:34.703Z,132.67
2024-04-17T02:24:09.012Z,131.00
2024-04-17T02:24:40.841Z,130.33
2024-04-17T02:25:13.089Z,129.00
2024-04-17T02:25:46.868Z,129.00
2024-04-17T02:26:18.976Z,129.00
2024-04-17T02:26:51.391Z,129.33
2024-04-17T02:27:23.283Z,130.00
2024-04-17T02:27:55.025Z,130.00
2024-04-17T02:28:47.081Z,130.00
2024-04-17T02:29:22.394Z,130.00
2024-04-17T02:29:54.199Z,129.67
2024-04-17T02:30:26.373Z,129.33
2024-04-17T02:30:58.155Z,130.00
2024-04-17T02:31:30.202Z,130.00
2024-04-17T02:32:02.835Z,130.00
2024-04-17T02:32:37.308Z,131.00
2024-04-17T02:33:09.960Z,132.33
2024-04-17T02:33:42.019Z,136.00
2024-04-17T02:34:14.142Z,139.33
2024-04-17T02:34:46.614Z,142.00
2024-04-17T02:35:21.898Z,144.00
2024-04-17T02:35:55.245Z,145.00
2024-04-17T02:36:27.247Z,145.00
2024-04-17T02:36:59.466Z,145.33
2024-04-17T02:37:31.587Z,146.33
2024-04-17T02:38:03.379Z,147.00
2024-04-17T02:38:36.607Z,146.00
2024-04-17T02:39:08.425Z,143.67
2024-04-17T02:39:40.506Z,141.67
2024-04-17T02:40:12.400Z,141.00
2024-04-17T02:40:44.874Z,141.67
2024-04-17T02:41:16.828Z,142.00
2024-04-17T02:41:50.851Z,142.00
2024-04-17T02:42:22.571Z,142.00
2024-04-17T02:42:55.030Z,134.00
2024-04-17T02:43:27.361Z,117.67
2024-04-17T02:43:59.479Z,109.00
2024-04-17T02:44:33.202Z,106.67
2024-04-17T02:45:05.376Z,107.67
2024-04-17T02:45:37.090Z,107.33
2024-04-17T02:46:10.466Z,98.33
2024-04-17T02:46:42.344Z,91.33
2024-04-17T02:47:14.500Z,91.00
2024-04-17T02:47:46.826Z,91.33
2024-04-17T02:48:18.691Z,88.67
2024-04-17T02:48:50.450Z,84.00
2024-04-17T02:49:22.757Z,81.67
2024-04-17T02:49:54.651Z,83.00
2024-04-17T02:50:26.848Z,85.67
2024-04-17T02:50:59.031Z,88.00
2024-04-17T02:51:31.439Z,85.67
2024-04-17T02:52:03.359Z,85.67
2024-04-17T02:52:38.594Z,85.67
2024-04-17T02:53:10.718Z,84.33
2024-04-17T02:53:42.521Z,86.33
2024-04-17T02:54:14.563Z,87.67
2024-04-17T02:54:46.316Z,86.33
2024-04-17T02:55:18.652Z,83.00
2024-04-17T02:55:50.457Z,82.33
2024-04-17T02:56:24.122Z,83.67
2024-04-17T02:56:55.915Z,85.33
2024-04-17T02:57:27.897Z,85.67
2024-04-17T02:58:00.714Z,82.33
2024-04-17T02:58:35.995Z,78.67
2024-04-17T02:59:08.059Z,77.00
2024-04-17T02:59:39.837Z,74.67
2024-04-17T03:00:12.060Z,74.00
2024-04-17T03:00:44.832Z,72.00
2024-04-17T03:01:17.792Z,69.67
2024-04-17T03:01:50.266Z,68.33
2024-04-17T03:02:22.624Z,69.00
2024-04-17T03:02:56.032Z,70.00
2024-04-17T03:03:29.536Z,71.00
2024-04-17T03:04:02.186Z,72.33
2024-04-17T03:04:34.076Z,73.00
2024-04-17T03:05:06.195Z,73.33
2024-04-17T03:05:38.424Z,74.00
2024-04-17T03:06:10.283Z,74.67
2024-04-17T03:06:43.817Z,75.00
2024-04-17T03:07:16.861Z,75.00
2024-04-17T03:07:48.662Z,75.33
2024-04-17T03:08:20.907Z,76.00
2024-04-17T03:08:53.302Z,77.33
2024-04-17T03:09:25.021Z,78.33
2024-04-17T03:09:57.793Z,93.33
2024-04-17T03:10:29.618Z,153.00
2024-04-17T03:11:02.365Z,139.33
2024-04-17T03:11:35.678Z,133.00
2024-04-17T03:12:07.893Z,139.67
2024-04-17T03:12:39.960Z,139.00
2024-04-17T03:13:11.841Z,133.00
2024-04-17T03:13:43.655Z,123.00
2024-04-17T03:14:15.581Z,118.00
2024-04-17T03:14:47.380Z,116.33
2024-04-17T03:15:19.224Z,115.00
2024-04-17T03:15:51.585Z,113.67
2024-04-17T03:16:26.625Z,112.67
2024-04-17T03:16:58.457Z,108.67
2024-04-17T03:17:31.276Z,104.67
2024-04-17T03:18:03.210Z,101.67
2024-04-17T03:18:35.583Z,99.67
2024-04-17T03:19:07.562Z,99.00
2024-04-17T03:19:39.506Z,97.67
2024-04-17T03:20:11.319Z,96.00
2024-04-17T03:20:44.693Z,93.00
2024-04-17T03:21:16.419Z,90.67
2024-04-17T03:21:49.531Z,89.67
2024-04-17T03:22:21.851Z,88.67
2024-04-17T03:22:55.780Z,85.33
2024-04-17T03:23:28.572Z,82.33
2024-04-17T03:24:01.476Z,81.00
2024-04-17T03:24:35.015Z,81.00
2024-04-17T03:25:07.827Z,81.00
2024-04-17T03:25:39.987Z,80.67
2024-04-17T03:26:12.032Z,78.67
2024-04-17T03:26:47.988Z,77.00
2024-04-17T03:27:20.038Z,77.00
2024-04-17T03:27:51.865Z,76.00
2024-04-17T03:28:24.891Z,74.33
2024-04-17T03:28:56.726Z,74.00
2024-04-17T03:29:28.999Z,74.33
2024-04-17T03:30:02.037Z,75.33
2024-04-17T03:30:33.979Z,76.67
2024-04-17T03:31:06.114Z,77.33
2024-04-17T03:31:38.240Z,78.00
2024-04-17T03:32:10.424Z,80.00
2024-04-17T03:32:43.939Z,120.00
2024-04-17T03:33:15.849Z,166.67
2024-04-17T03:34:07.767Z,141.67
2024-04-17T03:34:39.642Z,153.67
2024-04-17T03:35:11.828Z,160.00
2024-04-17T03:35:54.150Z,162.33
2024-04-17T03:36:27.865Z,176.00
2024-04-17T03:36:59.579Z,188.00
2024-04-17T03:37:31.558Z,186.00
2024-04-17T03:38:03.635Z,199.00
2024-04-17T03:38:35.764Z,218.67
2024-04-17T03:39:08.993Z,221.67
2024-04-17T03:39:41.935Z,215.00
2024-04-17T03:40:13.995Z,196.33
2024-04-17T03:40:45.818Z,188.33
2024-04-17T03:41:17.988Z,188.67
2024-04-17T03:41:51.036Z,174.33
2024-04-17T03:42:23.717Z,168.33
2024-04-17T03:42:55.657Z,166.33
2024-04-17T03:43:27.960Z,165.33
2024-04-17T03:44:00.124Z,164.67
2024-04-17T03:44:32.346Z,164.00
2024-04-17T03:45:04.999Z,163.33
2024-04-17T03:45:36.948Z,163.00
2024-04-17T03:46:10.389Z,162.33
2024-04-17T03:46:43.041Z,162.00
2024-04-17T03:47:14.889Z,162.00
2024-04-17T03:47:48.124Z,163.00
2024-04-17T03:48:19.967Z,167.33
2024-04-17T03:48:52.745Z,170.67
2024-04-17T03:49:25.966Z,168.33
2024-04-17T03:50:05.886Z,167.33
2024-04-17T03:50:37.610Z,165.67
2024-04-17T03:51:09.415Z,162.67
2024-04-17T03:51:41.714Z,162.00
2024-04-17T03:52:13.799Z,162.00
2024-04-17T03:52:45.566Z,162.00
2024-04-17T03:53:17.329Z,162.67
2024-04-17T03:53:50.656Z,163.00
2024-04-17T03:54:24.513Z,162.00
2024-04-17T03:54:58.179Z,162.00
2024-04-17T03:55:31.801Z,162.00
2024-04-17T03:56:03.702Z,162.00
2024-04-17T03:56:35.986Z,162.00
2024-04-17T03:57:07.946Z,161.33
2024-04-17T03:57:39.993Z,161.00
2024-04-17T03:58:14.051Z,161.00
2024-04-17T03:58:47.218Z,162.33
2024-04-17T03:59:18.962Z,165.00
2024-04-17T03:59:52.620Z,169.00
2024-04-17T04:00:26.459Z,173.33
2024-04-17T04:00:58.459Z,182.00
2024-04-17T04:01:34.939Z,213.00
2024-04-17T04:02:10.815Z,242.33
2024-04-17T04:02:44.826Z,300.67
2024-04-17T04:03:17.165Z,286.33
2024-04-17T04:04:08.901Z,209.33
2024-04-17T04:04:41.283Z,204.33
2024-04-17T04:05:14.748Z,203.00
2024-04-17T04:05:46.832Z,201.67
2024-04-17T04:06:18.916Z,201.00
2024-04-17T04:06:50.678Z,195.67
2024-04-17T04:07:24.135Z,187.00
2024-04-17T04:07:55.955Z,185.00
2024-04-17T04:08:28.872Z,154.00
2024-04-17T04:09:00.572Z,125.67
2024-04-17T04:09:37.802Z,116.00
2024-04-17T04:10:09.942Z,104.67
2024-04-17T04:10:42.256Z,101.00
2024-04-17T04:11:14.765Z,104.00
2024-04-17T04:11:47.032Z,104.67
2024-04-17T04:12:19.244Z,105.67
2024-04-17T04:12:51.253Z,103.00
2024-04-17T04:13:24.714Z,99.67
2024-04-17T04:13:56.547Z,101.33
2024-04-17T04:14:29.381Z,105.33
2024-04-17T04:15:02.591Z,105.33
2024-04-17T04:15:34.450Z,109.00
2024-04-17T04:16:08.182Z,105.00
2024-04-17T04:16:39.983Z,105.67
2024-04-17T04:17:11.924Z,112.00
2024-04-17T04:17:45.382Z,115.67
2024-04-17T04:18:19.157Z,118.33
2024-04-17T04:18:50.965Z,119.67
2024-04-17T04:19:24.251Z,121.00
2024-04-17T04:20:16.386Z,122.33
2024-04-17T04:20:48.130Z,123.00
2024-04-17T04:21:19.836Z,123.67
2024-04-17T04:21:51.967Z,124.00
2024-04-17T04:22:25.916Z,124.00
2024-04-17T04:22:58.017Z,122.67
2024-04-17T04:23:30.879Z,113.33
2024-04-17T04:24:03.430Z,106.67
2024-04-17T04:24:35.764Z,99.00
2024-04-17T04:25:10.760Z,89.67
2024-04-17T04:25:42.836Z,91.00
2024-04-17T04:26:14.563Z,98.00
2024-04-17T04:26:46.642Z,96.33
2024-04-17T04:27:18.662Z,98.67
2024-04-17T04:27:50.635Z,103.00
2024-04-17T04:28:22.990Z,104.33
2024-04-17T04:28:54.974Z,105.00
2024-04-17T04:29:28.875Z,105.67
2024-04-17T04:30:01.335Z,103.33
2024-04-17T04:30:37.679Z,105.00
2024-04-17T04:31:10.988Z,106.00
2024-04-17T04:31:44.402Z,106.00
2024-04-17T04:32:16.237Z,107.00
2024-04-17T04:32:48.081Z,107.67
2024-04-17T04:33:20.979Z,109.00
2024-04-17T04:33:52.839Z,109.33
2024-04-17T04:34:27.022Z,112.00
2024-04-17T04:34:59.073Z,115.67
2024-04-17T04:35:30.847Z,115.33
2024-04-17T04:36:02.645Z,113.67
2024-04-17T04:36:34.660Z,109.33
2024-04-17T04:37:06.479Z,108.00
2024-04-17T04:37:38.239Z,108.00
2024-04-17T04:38:09.943Z,108.33
2024-04-17T04:38:42.261Z,109.33
2024-04-17T04:39:14.278Z,115.67
2024-04-17T04:40:06.746Z,132.33
2024-04-17T04:40:39.997Z,132.67
2024-04-17T04:41:13.365Z,134.67
2024-04-17T04:41:45.324Z,134.00
2024-04-17T04:42:19.212Z,130.33
2024-04-17T04:42:50.931Z,130.33
2024-04-17T04:43:23.820Z,129.00
2024-04-17T04:43:58.136Z,237.00
2024-04-17T04:44:30.012Z,348.33
2024-04-17T04:45:02.438Z,378.00
2024-04-17T04:45:34.401Z,335.00
2024-04-17T04:46:07.477Z,214.00
2024-04-17T04:46:39.530Z,173.67
2024-04-17T04:47:12.362Z,143.67
2024-04-17T04:47:45.214Z,136.33
2024-04-17T04:48:17.140Z,138.67
2024-04-17T04:48:48.924Z,144.33
2024-04-17T04:49:20.897Z,148.33
2024-04-17T04:49:54.752Z,149.67
2024-04-17T04:50:26.571Z,150.00
2024-04-17T04:51:01.619Z,150.67
2024-04-17T04:51:33.371Z,150.00
2024-04-17T04:52:06.683Z,154.33
2024-04-17T04:52:40.023Z,148.00
2024-04-17T04:53:12.422Z,146.00
2024-04-17T04:53:44.110Z,147.00
2024-04-17T04:54:15.878Z,148.33
2024-04-17T04:54:47.673Z,149.33
2024-04-17T04:55:19.747Z,151.67
2024-04-17T04:55:59.557Z,153.00
2024-04-17T04:56:31.711Z,159.33
2024-04-17T04:57:05.084Z,175.67
2024-04-17T04:57:37.225Z,170.33
2024-04-17T04:58:09.701Z,168.33
2024-04-17T04:58:44.196Z,158.00
2024-04-17T04:59:17.223Z,147.33
2024-04-17T04:59:50.293Z,135.67
2024-04-17T05:00:22.210Z,134.33
2024-04-17T05:00:54.698Z,137.33
2024-04-17T05:01:26.648Z,141.00
2024-04-17T05:01:59.012Z,144.33
2024-04-17T05:02:31.894Z,159.33
2024-04-17T05:03:05.459Z,171.33
2024-04-17T05:03:37.323Z,177.00
2024-04-17T05:04:09.456Z,174.00
2024-04-17T05:04:43.509Z,171.00
2024-04-17T05:05:15.333Z,167.67
2024-04-17T05:05:48.868Z,153.00
2024-04-17T05:06:20.838Z,136.33
2024-04-17T05:06:52.583Z,129.00
2024-04-17T05:07:26.516Z,126.67
2024-04-17T05:07:59.902Z,129.00
2024-04-17T05:08:33.145Z,131.00
2024-04-17T05:09:05.091Z,131.33
2024-04-17T05:09:37.687Z,134.33
2024-04-17T05:10:10.928Z,138.00
2024-04-17T05:10:43.294Z,148.00
2024-04-17T05:11:15.215Z,150.00
2024-04-17T05:11:47.544Z,149.33
2024-04-17T05:12:19.512Z,147.00
2024-04-17T05:12:51.871Z,144.33
2024-04-17T05:13:25.371Z,144.00
2024-04-17T05:13:57.234Z,144.00
2024-04-17T05:14:29.034Z,144.00
2024-04-17T05:15:01.007Z,145.00
2024-04-17T05:15:35.311Z,148.67
2024-04-17T05:16:09.751Z,155.33
2024-04-17T05:16:42.745Z,159.00
2024-04-17T05:17:14.886Z,157.67
2024-04-17T05:17:47.975Z,157.00
2024-04-17T05:18:21.482Z,156.33
2024-04-17T05:18:54.155Z,181.67
2024-04-17T05:19:25.949Z,205.00
2024-04-17T05:19:58.562Z,219.67
2024-04-17T05:20:32.158Z,221.67
2024-04-17T05:21:03.935Z,214.00
2024-04-17T05:21:36.194Z,211.00
2024-04-17T05:22:08.992Z,207.33
2024-04-17T05:22:41.371Z,189.00
2024-04-17T05:23:13.743Z,184.67
2024-04-17T05:23:46.148Z,176.67
2024-04-17T05:24:18.109Z,170.67
2024-04-17T05:24:50.123Z,161.33
2024-04-17T05:25:46.561Z,160.00
2024-04-17T05:26:19.216Z,160.67
2024-04-17T05:27:12.032Z,173.33
2024-04-17T05:27:43.760Z,174.00
2024-04-17T05:28:15.817Z,174.33
2024-04-17T05:28:47.601Z,173.67
2024-04-17T05:29:20.641Z,169.00
2024-04-17T05:29:54.418Z,164.67
2024-04-17T05:30:26.232Z,164.33
2024-04-17T05:30:59.594Z,174.33
2024-04-17T05:31:32.378Z,187.67
2024-04-17T05:32:07.173Z,190.33
2024-04-17T05:32:39.332Z,184.00
2024-04-17T05:33:11.391Z,170.67
2024-04-17T05:33:43.786Z,167.00
2024-04-17T05:34:15.553Z,165.33
2024-04-17T05:34:49.311Z,165.67
2024-04-17T05:35:21.073Z,166.00
2024-04-17T05:35:53.803Z,167.67
2024-04-17T05:36:25.519Z,187.67
2024-04-17T05:36:57.457Z,214.00
2024-04-17T05:37:29.899Z,227.33
2024-04-17T05:38:02.532Z,210.67
2024-04-17T05:38:34.728Z,211.33
2024-04-17T05:39:06.753Z,227.33
2024-04-17T05:39:41.302Z,206.33
2024-04-17T05:40:14.150Z,198.00
2024-04-17T05:40:49.061Z,189.33
2024-04-17T05:41:20.860Z,164.33
2024-04-17T05:41:52.923Z,156.33
2024-04-17T05:42:28.237Z,160.33
2024-04-17T05:43:00.812Z,158.67
2024-04-17T05:43:32.941Z,159.67
2024-04-17T05:44:05.152Z,163.33
2024-04-17T05:44:38.522Z,167.00
2024-04-17T05:45:10.416Z,175.67
2024-04-17T05:45:46.479Z,176.33
2024-04-17T05:46:18.447Z,162.67
2024-04-17T05:46:50.623Z,160.67
2024-04-17T05:47:22.674Z,160.67
2024-04-17T05:47:54.873Z,162.33
2024-04-17T05:48:27.315Z,162.00
2024-04-17T05:48:59.274Z,150.00
2024-04-17T05:49:31.181Z,145.67
2024-04-17T05:50:08.653Z,142.00
2024-04-17T05:50:42.166Z,144.67
2024-04-17T05:51:15.336Z,157.00
2024-04-17T05:51:47.110Z,195.67
2024-04-17T05:52:20.498Z,212.33
2024-04-17T05:52:52.328Z,198.33
2024-04-17T05:53:26.747Z,188.00
2024-04-17T05:53:58.732Z,185.67
2024-04-17T05:54:31.608Z,182.00
2024-04-17T05:55:04.186Z,178.67
2024-04-17T05:55:40.012Z,175.33
2024-04-17T05:56:12.321Z,179.00
2024-04-17T05:56:45.061Z,180.33
2024-04-17T05:57:16.898Z,166.33
2024-04-17T05:57:49.403Z,152.00
2024-04-17T05:58:21.125Z,157.00
2024-04-17T05:58:53.356Z,156.00
2024-04-17T05:59:26.708Z,148.67
2024-04-17T06:00:01.949Z,144.00
2024-04-17T06:00:58.674Z,148.67
2024-04-17T06:01:34.068Z,151.00
2024-04-17T06:02:06.113Z,152.67
2024-04-17T06:02:39.170Z,154.67
2024-04-17T06:03:11.160Z,155.67
2024-04-17T06:03:43.095Z,155.67
2024-04-17T06:04:15.845Z,157.67
2024-04-17T06:04:47.682Z,152.33
2024-04-17T06:05:21.417Z,140.67
2024-04-17T06:05:53.241Z,135.67
2024-04-17T06:06:25.319Z,131.00
2024-04-17T06:06:57.112Z,130.00
2024-04-17T06:07:29.967Z,131.67
2024-04-17T06:08:01.889Z,130.00
2024-04-17T06:08:34.437Z,122.33
2024-04-17T06:09:06.937Z,117.67
2024-04-17T06:09:39.461Z,119.67
2024-04-17T06:10:12.761Z,126.00
2024-04-17T06:10:47.059Z,131.33
2024-04-17T06:11:20.189Z,132.67
2024-04-17T06:11:52.240Z,135.00
2024-04-17T06:12:25.816Z,134.00
2024-04-17T06:12:59.907Z,143.67
2024-04-17T06:13:32.781Z,164.33
2024-04-17T06:14:09.544Z,158.67
2024-04-17T06:14:42.777Z,151.33
2024-04-17T06:15:15.564Z,136.33
2024-04-17T06:15:48.990Z,127.33
2024-04-17T06:16:20.977Z,127.67
2024-04-17T06:16:54.384Z,140.00
2024-04-17T06:17:26.310Z,155.00
2024-04-17T06:18:00.577Z,153.33
2024-04-17T06:18:32.542Z,153.00
2024-04-17T06:19:04.985Z,151.33
2024-04-17T06:19:38.257Z,145.00
2024-04-17T06:20:10.357Z,127.33
2024-04-17T06:20:42.468Z,127.67
2024-04-17T06:21:15.399Z,128.00
2024-04-17T06:21:47.697Z,130.00
2024-04-17T06:22:19.811Z,135.67
2024-04-17T06:22:51.872Z,140.33
2024-04-17T06:23:26.239Z,141.00
2024-04-17T06:23:58.254Z,141.00
2024-04-17T06:24:30.428Z,141.00
2024-04-17T06:25:04.882Z,139.67
2024-04-17T06:25:42.127Z,138.00
2024-04-17T06:26:13.946Z,138.00
2024-04-17T06:26:47.268Z,135.67
2024-04-17T06:27:22.535Z,131.33
2024-04-17T06:27:56.085Z,124.00
2024-04-17T06:28:28.016Z,121.67
2024-04-17T06:29:00.585Z,120.00
2024-04-17T06:29:33.438Z,121.67
2024-04-17T06:30:05.747Z,123.67
2024-04-17T06:30:38.950Z,125.00
2024-04-17T06:31:10.992Z,123.67
2024-04-17T06:31:46.095Z,122.00
2024-04-17T06:32:18.275Z,119.33
2024-04-17T06:32:50.594Z,119.33
2024-04-17T06:33:22.615Z,118.00
2024-04-17T06:33:54.701Z,118.67
2024-04-17T06:34:26.969Z,118.00
2024-04-17T06:34:59.632Z,118.33
2024-04-17T06:35:34.455Z,119.67
2024-04-17T06:36:06.592Z,120.00
2024-04-17T06:36:39.273Z,120.00
2024-04-17T06:37:11.296Z,121.00
2024-04-17T06:37:46.567Z,121.33
2024-04-17T06:38:19.006Z,126.33
2024-04-17T06:38:50.829Z,146.67
2024-04-17T06:39:45.197Z,169.33
2024-04-17T06:40:17.510Z,165.00
2024-04-17T06:40:51.023Z,156.33
2024-04-17T06:41:28.652Z,154.67
2024-04-17T06:42:05.800Z,154.67
2024-04-17T06:42:37.579Z,154.33
2024-04-17T06:43:09.683Z,156.00
2024-04-17T06:43:43.546Z,167.67
2024-04-17T06:44:17.378Z,173.67
2024-04-17T06:44:49.183Z,171.00
2024-04-17T06:45:21.416Z,179.00
2024-04-17T06:45:56.449Z,217.33
2024-04-17T06:46:29.569Z,227.67
2024-04-17T06:47:01.843Z,203.67
2024-04-17T06:47:34.304Z,211.67
2024-04-17T06:48:08.208Z,200.00
2024-04-17T06:48:40.675Z,198.33
2024-04-17T06:49:13.726Z,193.00
2024-04-17T06:50:05.870Z,193.33
2024-04-17T06:50:37.926Z,189.33
2024-04-17T06:51:12.794Z,187.67
2024-04-17T06:51:45.262Z,186.67
2024-04-17T06:52:17.620Z,188.00
2024-04-17T06:52:49.663Z,184.33